createdAt,value
2018-09-01T00:12:30.839Z,15.40
2018-09-01T00:14:58.727Z,11.90
2018-09-01T00:17:30.553Z,10.80
2018-09-01T00:22:27.009Z,13.80
2018-09-01T00:24:55.002Z,12.70
2018-09-01T00:27:23.504Z,12.45
2018-09-01T00:29:51.792Z,9.53
2018-09-01T00:32:20.582Z,11.15
2018-09-01T00:34:48.746Z,12.55
2018-09-01T00:37:22.235Z,17.37
2018-09-01T00:39:50.138Z,17.75
2018-09-01T00:42:18.045Z,10.83
2018-09-01T00:44:45.987Z,11.00
2018-09-01T00:49:40.954Z,11.15
2018-09-01T00:54:54.639Z,12.20
2018-09-01T00:57:22.544Z,13.90
2018-09-01T00:59:50.501Z,9.10
2018-09-01T01:02:18.481Z,11.90
2018-09-01T01:04:46.509Z,10.27
2018-09-01T01:07:15.532Z,10.07
2018-09-01T01:09:43.900Z,12.47
2018-09-01T01:12:11.821Z,12.90
2018-09-01T01:14:39.831Z,12.27
2018-09-01T01:17:09.173Z,15.30
2018-09-01T01:19:37.034Z,11.85
2018-09-01T01:22:04.880Z,12.90
2018-09-01T01:24:32.810Z,14.20
2018-09-01T01:29:31.376Z,16.25
2018-09-01T01:31:59.248Z,12.23
2018-09-01T01:34:27.155Z,11.25
2018-09-01T01:36:55.113Z,9.70
2018-09-01T01:39:22.985Z,12.07
2018-09-01T01:41:50.894Z,11.67
2018-09-01T01:44:18.797Z,9.30
2018-09-01T01:46:48.676Z,10.13
2018-09-01T01:49:16.516Z,13.20
2018-09-01T01:51:44.482Z,13.07
2018-09-01T01:54:12.365Z,9.77
2018-09-01T01:56:40.244Z,12.63
2018-09-01T01:59:08.315Z,13.00
2018-09-01T02:01:36.241Z,12.47
2018-09-01T02:04:04.170Z,8.13
2018-09-01T02:06:32.034Z,14.30
2018-09-01T02:08:59.905Z,13.60
2018-09-01T02:11:27.781Z,10.30
2018-09-01T02:13:55.775Z,17.23
2018-09-01T02:16:24.574Z,14.60
2018-09-01T02:18:52.491Z,15.37
2018-09-01T02:21:20.394Z,12.53
2018-09-01T02:23:48.728Z,9.90
2018-09-01T02:26:17.621Z,11.03
2018-09-01T02:28:45.563Z,12.23
2018-09-01T02:31:13.457Z,13.60
2018-09-01T02:33:41.296Z,9.93
2018-09-01T02:36:09.235Z,17.60
2018-09-01T02:38:37.173Z,9.60
2018-09-01T02:41:05.080Z,11.60
2018-09-01T02:43:34.035Z,11.60
2018-09-01T02:46:02.350Z,11.50
2018-09-01T02:48:30.526Z,9.87
2018-09-01T02:50:58.400Z,11.33
2018-09-01T02:53:26.333Z,10.17
2018-09-01T02:55:54.246Z,13.53
2018-09-01T02:58:22.178Z,17.57
2018-09-01T03:00:55.524Z,14.50
2018-09-01T03:03:23.463Z,17.00
2018-09-01T03:05:51.361Z,16.83
2018-09-01T03:08:19.311Z,15.20
2018-09-01T03:10:47.241Z,14.63
2018-09-01T03:13:15.157Z,10.63
2018-09-01T03:15:43.021Z,12.97
2018-09-01T03:18:10.898Z,20.43
2018-09-01T03:20:38.769Z,11.27
2018-09-01T03:23:06.673Z,16.77
2018-09-01T03:25:34.580Z,9.70
2018-09-01T03:28:02.554Z,10.93
2018-09-01T03:30:30.445Z,12.07
2018-09-01T03:32:58.366Z,12.90
2018-09-01T03:35:26.352Z,11.37
2018-09-01T03:37:54.605Z,11.10
2018-09-01T03:40:22.569Z,14.87
2018-09-01T03:42:50.501Z,13.23
2018-09-01T03:45:18.554Z,17.60
2018-09-01T03:47:46.537Z,15.30
2018-09-01T03:50:14.400Z,17.37
2018-09-01T03:52:42.322Z,12.23
2018-09-01T03:55:11.194Z,11.23
2018-09-01T03:57:39.086Z,10.07
2018-09-01T04:00:07.103Z,12.40
2018-09-01T04:02:35.135Z,9.60
2018-09-01T04:05:03.029Z,13.10
2018-09-01T04:07:31.041Z,10.63
2018-09-01T04:09:58.976Z,12.67
2018-09-01T04:12:26.824Z,9.00
2018-09-01T04:14:54.732Z,11.63
2018-09-01T04:17:22.571Z,14.83
2018-09-01T04:19:50.455Z,12.43
2018-09-01T04:22:18.382Z,11.27
2018-09-01T04:24:46.312Z,14.93
2018-09-01T04:27:14.278Z,10.30
2018-09-01T04:29:42.135Z,15.00
2018-09-01T04:32:10.100Z,10.23
2018-09-01T04:34:37.953Z,10.87
2018-09-01T04:37:05.898Z,14.70
2018-09-01T04:39:33.793Z,13.90
2018-09-01T04:42:01.732Z,17.27
2018-09-01T04:44:29.624Z,12.50
2018-09-01T04:46:57.602Z,19.00
2018-09-01T04:49:25.477Z,16.13
2018-09-01T04:51:53.365Z,12.90
2018-09-01T04:54:21.366Z,11.77
2018-09-01T04:56:49.319Z,11.83
2018-09-01T04:59:17.207Z,15.00
2018-09-01T05:01:45.126Z,13.63
2018-09-01T05:04:13.017Z,18.03
2018-09-01T05:06:40.970Z,12.40
2018-09-01T05:09:08.933Z,11.47
2018-09-01T05:11:36.859Z,16.60
2018-09-01T05:14:04.754Z,16.37
2018-09-01T05:16:32.664Z,11.83
2018-09-01T05:19:00.610Z,14.93
2018-09-01T05:21:28.458Z,14.93
2018-09-01T05:23:56.424Z,12.83
2018-09-01T05:26:24.329Z,15.40
2018-09-01T05:28:52.232Z,14.60
2018-09-01T05:31:20.147Z,18.53
2018-09-01T05:33:48.143Z,18.10
2018-09-01T05:36:16.098Z,11.97
2018-09-01T05:38:44.003Z,12.70
2018-09-01T05:41:11.906Z,15.27
2018-09-01T05:43:39.868Z,15.87
2018-09-01T05:46:07.759Z,14.57
2018-09-01T05:48:35.708Z,15.63
2018-09-01T05:51:03.629Z,16.30
2018-09-01T05:53:31.533Z,18.07
2018-09-01T05:55:59.433Z,14.00
2018-09-01T05:58:27.377Z,13.23
2018-09-01T06:00:55.225Z,14.43
2018-09-01T06:03:23.133Z,14.67
2018-09-01T06:05:51.008Z,15.67
2018-09-01T06:08:18.985Z,19.23
2018-09-01T06:10:46.935Z,14.33
2018-09-01T06:13:14.821Z,17.03
2018-09-01T06:15:42.728Z,14.80
2018-09-01T06:18:10.630Z,16.27
2018-09-01T06:20:38.489Z,14.03
2018-09-01T06:23:06.450Z,18.13
2018-09-01T06:25:34.357Z,15.87
2018-09-01T06:28:06.025Z,23.00
2018-09-01T06:30:36.310Z,16.10
2018-09-01T06:33:04.317Z,17.97
2018-09-01T06:35:32.193Z,15.90
2018-09-01T06:40:27.378Z,18.50
2018-09-01T06:42:55.499Z,25.70
2018-09-01T06:45:23.389Z,24.60
2018-09-01T06:52:45.429Z,15.80
2018-09-01T06:55:13.530Z,15.65
2018-09-01T06:57:41.526Z,23.30
2018-09-01T07:00:09.542Z,16.10
2018-09-01T07:02:37.547Z,17.47
2018-09-01T07:05:05.454Z,16.30
2018-09-01T07:07:33.430Z,15.93
2018-09-01T07:10:01.370Z,12.20
2018-09-01T07:12:29.173Z,13.17
2018-09-01T07:14:57.203Z,14.97
2018-09-01T07:17:25.142Z,18.10
2018-09-01T07:19:53.035Z,20.37
2018-09-01T07:22:20.925Z,14.63
2018-09-01T07:24:48.879Z,15.13
2018-09-01T07:27:16.798Z,11.63
2018-09-01T07:29:44.713Z,14.80
2018-09-01T07:32:13.710Z,21.63
2018-09-01T07:34:42.553Z,19.83
2018-09-01T07:37:10.454Z,22.40
2018-09-01T07:39:38.361Z,16.93
2018-09-01T07:42:06.337Z,15.13
2018-09-01T07:44:34.241Z,14.43
2018-09-01T07:47:02.120Z,14.73
2018-09-01T07:49:29.968Z,20.03
2018-09-01T07:51:57.922Z,14.57
2018-09-01T07:54:25.859Z,13.53
2018-09-01T07:56:53.779Z,18.47
2018-09-01T07:59:21.742Z,15.47
2018-09-01T08:01:49.632Z,16.33
2018-09-01T08:04:17.526Z,18.07
2018-09-01T08:06:45.490Z,15.57
2018-09-01T08:09:13.445Z,14.93
2018-09-01T08:11:41.334Z,12.43
2018-09-01T08:14:09.323Z,13.33
2018-09-01T08:16:37.165Z,14.53
2018-09-01T08:19:05.421Z,11.67
2018-09-01T08:21:33.290Z,16.27
2018-09-01T08:24:01.198Z,12.60
2018-09-01T08:26:29.137Z,11.50
2018-09-01T08:28:57.944Z,14.67
2018-09-01T08:31:25.869Z,10.83
2018-09-01T08:33:53.848Z,18.00
2018-09-01T08:36:22.729Z,13.90
2018-09-01T08:38:50.581Z,13.97
2018-09-01T08:41:18.490Z,20.33
2018-09-01T08:43:46.422Z,12.10
2018-09-01T08:46:14.313Z,13.40
2018-09-01T08:48:42.193Z,17.00
2018-09-01T08:51:10.104Z,11.80
2018-09-01T08:53:38.039Z,12.53
2018-09-01T08:56:06.318Z,11.17
2018-09-01T08:58:34.245Z,10.87
2018-09-01T09:01:02.088Z,10.00
2018-09-01T09:03:29.964Z,9.83
2018-09-01T09:05:57.851Z,12.67
2018-09-01T09:08:25.897Z,13.47
2018-09-01T09:10:53.819Z,10.57
2018-09-01T09:13:21.823Z,6.83
2018-09-01T09:15:49.752Z,10.50
2018-09-01T09:18:17.755Z,10.33
2018-09-01T09:20:45.649Z,8.57
2018-09-01T09:23:13.603Z,13.23
2018-09-01T09:25:42.218Z,8.63
2018-09-01T09:28:10.301Z,9.67
2018-09-01T09:30:38.161Z,15.03
2018-09-01T09:33:06.052Z,8.57
2018-09-01T09:35:34.023Z,8.67
2018-09-01T09:38:01.945Z,8.60
2018-09-01T09:40:29.911Z,6.80
2018-09-01T09:42:57.815Z,8.53
2018-09-01T09:45:25.746Z,9.63
2018-09-01T09:47:53.642Z,10.13
2018-09-01T09:50:21.525Z,9.30
2018-09-01T09:52:49.723Z,9.70
2018-09-01T09:55:17.953Z,9.55
2018-09-01T09:57:45.936Z,8.60
2018-09-01T10:00:13.841Z,9.50
2018-09-01T10:02:41.727Z,9.15
2018-09-01T10:07:36.665Z,6.00
2018-09-01T10:12:31.651Z,10.00
2018-09-01T10:19:53.817Z,7.10
2018-09-01T10:22:21.747Z,9.10
2018-09-01T10:27:16.849Z,9.55
2018-09-01T11:55:35.572Z,7.40
2018-09-01T11:58:03.482Z,8.30
2018-09-01T12:00:31.374Z,8.03
2018-09-01T12:02:59.315Z,7.90
2018-09-01T12:05:27.278Z,7.00
2018-09-01T12:07:55.417Z,6.90
2018-09-01T12:10:23.426Z,8.70
2018-09-01T12:12:51.345Z,7.20
2018-09-01T12:15:19.321Z,5.90
2018-09-01T12:17:47.238Z,7.83
2018-09-01T12:20:15.140Z,6.43
2018-09-01T12:22:43.049Z,6.83
2018-09-01T12:25:10.998Z,8.93
2018-09-01T12:27:38.888Z,10.77
2018-09-01T12:30:06.784Z,9.50
2018-09-01T12:32:34.724Z,8.17
2018-09-01T12:35:02.661Z,9.23
2018-09-01T12:37:30.550Z,8.13
2018-09-01T12:39:58.506Z,7.30
2018-09-01T12:42:26.430Z,10.90
2018-09-01T12:44:54.394Z,6.03
2018-09-01T12:47:22.289Z,6.93
2018-09-01T12:49:50.223Z,7.30
2018-09-01T12:52:18.104Z,7.30
2018-09-01T12:54:46.023Z,10.03
2018-09-01T12:57:15.018Z,7.43
2018-09-01T12:59:42.881Z,6.97
2018-09-01T13:02:13.596Z,6.95
2018-09-01T13:04:41.506Z,8.10
2018-09-01T13:07:09.425Z,8.37
2018-09-01T13:09:37.293Z,8.80
2018-09-01T13:12:05.165Z,10.30
2018-09-01T13:14:33.041Z,12.10
2018-09-01T13:17:00.885Z,10.43
2018-09-01T13:19:28.814Z,9.80
2018-09-01T13:21:56.688Z,6.47
2018-09-01T13:24:24.610Z,7.63
2018-09-01T13:26:52.462Z,10.70
2018-09-01T13:29:20.301Z,7.07
2018-09-01T13:31:48.270Z,5.67
2018-09-01T13:34:16.308Z,7.57
2018-09-01T13:36:44.112Z,5.70
2018-09-01T13:39:12.037Z,5.73
2018-09-01T13:41:39.991Z,7.43
2018-09-01T13:44:07.894Z,10.27
2018-09-01T13:46:35.878Z,7.77
2018-09-01T13:49:03.784Z,7.67
2018-09-01T13:51:31.678Z,7.90
2018-09-01T13:54:00.614Z,5.77
2018-09-01T13:56:28.504Z,9.33
2018-09-01T13:58:56.406Z,8.50
2018-09-01T14:01:24.373Z,6.40
2018-09-01T14:03:52.268Z,9.23
2018-09-01T14:06:20.222Z,7.13
2018-09-01T14:08:48.130Z,5.63
2018-09-01T14:11:16.028Z,5.20
2018-09-01T14:13:43.869Z,5.80
2018-09-01T14:16:11.765Z,6.70
2018-09-01T14:18:39.718Z,11.53
2018-09-01T14:21:07.738Z,8.43
2018-09-01T14:23:35.507Z,6.30
2018-09-01T14:26:03.471Z,6.80
2018-09-01T14:28:31.359Z,9.23
2018-09-01T14:30:59.227Z,7.37
2018-09-01T14:33:27.258Z,7.10
2018-09-01T14:35:55.202Z,7.53
2018-09-01T14:38:23.122Z,9.00
2018-09-01T14:40:50.988Z,12.73
2018-09-01T14:43:18.882Z,5.40
2018-09-01T14:45:47.840Z,6.13
2018-09-01T14:48:15.793Z,7.10
2018-09-01T14:50:43.709Z,8.70
2018-09-01T14:53:11.632Z,7.73
2018-09-01T14:55:39.471Z,7.57
2018-09-01T14:58:07.332Z,7.60
2018-09-01T15:00:35.191Z,9.20
2018-09-01T15:03:03.090Z,8.07
2018-09-01T15:05:31.034Z,7.50
2018-09-01T15:07:58.895Z,7.40
2018-09-01T15:10:26.891Z,6.43
2018-09-01T15:12:54.765Z,10.00
2018-09-01T15:15:22.697Z,8.90
2018-09-01T15:17:50.672Z,6.00
2018-09-01T15:20:18.511Z,6.63
2018-09-01T15:22:46.447Z,6.47
2018-09-01T15:25:14.369Z,5.57
2018-09-01T15:27:42.258Z,9.73
2018-09-01T15:30:10.073Z,8.27
2018-09-01T15:32:38.088Z,5.27
2018-09-01T15:35:06.247Z,6.20
2018-09-01T15:37:34.199Z,7.60
2018-09-01T15:40:02.103Z,6.43
2018-09-01T15:42:29.900Z,6.70
2018-09-01T15:44:57.833Z,6.60
2018-09-01T15:47:25.715Z,12.37
2018-09-01T15:49:53.666Z,5.23
2018-09-01T15:52:21.570Z,7.50
2018-09-01T15:54:49.505Z,6.80
2018-09-01T15:57:17.415Z,5.00
2018-09-01T15:59:45.362Z,4.90
2018-09-01T16:02:13.302Z,5.50
2018-09-01T16:04:41.228Z,6.00
2018-09-01T16:07:09.036Z,5.07
2018-09-01T16:09:36.924Z,9.23
2018-09-01T16:12:04.882Z,5.57
2018-09-01T16:14:32.838Z,6.97
2018-09-01T16:17:01.072Z,7.90
2018-09-01T16:19:28.925Z,6.03
2018-09-01T16:21:56.853Z,6.27
2018-09-01T16:24:24.792Z,6.27
2018-09-01T16:26:52.783Z,6.30
2018-09-01T16:29:20.666Z,5.40
2018-09-01T16:31:48.594Z,6.37
2018-09-01T16:34:16.433Z,5.07
2018-09-01T16:36:44.383Z,9.00
2018-09-01T16:39:12.300Z,6.00
2018-09-01T16:41:40.238Z,6.03
2018-09-01T16:44:08.171Z,7.47
2018-09-01T16:46:36.069Z,6.80
2018-09-01T16:49:03.994Z,5.70
2018-09-01T16:51:31.860Z,7.30
2018-09-01T16:53:59.732Z,6.50
2018-09-01T17:16:06.504Z,8.33
2018-09-01T17:18:34.336Z,7.00
2018-09-01T17:21:02.347Z,8.17
2018-09-01T17:23:30.217Z,6.77
2018-09-01T17:38:14.593Z,8.33
2018-09-01T17:40:42.473Z,7.17
2018-09-01T17:43:10.334Z,10.07
2018-09-01T17:45:38.297Z,8.17
2018-09-01T17:48:06.227Z,12.00
2018-09-01T17:50:34.059Z,7.77
2018-09-01T17:53:01.913Z,6.73
2018-09-01T17:55:29.862Z,17.20
2018-09-01T17:57:57.853Z,16.80
2018-09-01T18:00:26.637Z,7.80
2018-09-01T18:02:54.578Z,7.37
2018-09-01T18:05:22.391Z,8.17
2018-09-01T18:07:50.283Z,6.10
2018-09-01T18:10:18.189Z,10.50
2018-09-01T18:12:46.131Z,7.57
2018-09-01T18:15:14.069Z,12.73
2018-09-01T18:17:42.051Z,9.30
2018-09-01T18:20:09.957Z,8.60
2018-09-01T18:22:37.865Z,15.37
2018-09-01T18:25:05.881Z,11.77
2018-09-01T18:27:33.872Z,14.57
2018-09-01T18:30:01.850Z,16.33
2018-09-01T18:32:29.864Z,12.87
2018-09-01T18:34:57.787Z,17.70
2018-09-01T18:37:25.713Z,13.63
2018-09-01T18:39:53.597Z,10.70
2018-09-01T18:42:21.507Z,10.77
2018-09-01T18:44:49.437Z,10.57
2018-09-01T18:47:17.362Z,9.43
2018-09-01T18:49:45.261Z,13.77
2018-09-01T18:52:13.154Z,12.17
2018-09-01T18:54:41.124Z,8.17
2018-09-01T18:57:09.101Z,12.33
2018-09-01T18:59:37.017Z,11.90
2018-09-01T19:02:05.971Z,11.80
2018-09-01T19:04:34.903Z,9.27
2018-09-01T19:07:03.000Z,9.60
2018-09-01T19:09:30.893Z,13.43
2018-09-01T19:11:58.822Z,9.90
2018-09-01T19:14:26.714Z,10.77
2018-09-01T19:16:54.669Z,9.63
2018-09-01T19:19:22.599Z,10.27
2018-09-01T19:21:50.452Z,13.47
2018-09-01T19:24:18.388Z,7.30
2018-09-01T19:26:46.261Z,9.43
2018-09-01T19:29:14.133Z,12.17
2018-09-01T19:31:42.028Z,11.40
2018-09-01T19:34:09.916Z,16.00
2018-09-01T19:36:37.796Z,14.87
2018-09-01T19:39:07.124Z,10.80
2018-09-01T19:41:34.970Z,11.20
2018-09-01T19:44:02.845Z,14.63
2018-09-01T19:46:30.748Z,11.40
2018-09-01T19:48:58.626Z,9.53
2018-09-01T19:51:26.667Z,13.90
2018-09-01T19:53:54.533Z,8.37
2018-09-01T19:56:22.441Z,8.50
2018-09-01T19:58:50.293Z,10.77
2018-09-01T20:01:18.158Z,9.10
2018-09-01T20:03:46.032Z,10.20
2018-09-01T20:06:14.570Z,5.43
2018-09-01T20:08:42.492Z,12.00
2018-09-01T20:11:10.360Z,9.53
2018-09-01T20:13:38.353Z,11.10
2018-09-01T20:16:06.277Z,9.63
2018-09-01T20:18:34.226Z,11.83
2018-09-01T20:21:02.220Z,10.17
2018-09-01T20:23:30.145Z,10.97
2018-09-01T20:25:57.980Z,7.37
2018-09-01T20:28:25.840Z,9.53
2018-09-01T20:30:53.744Z,10.80
2018-09-01T20:33:21.746Z,9.43
2018-09-01T20:35:57.083Z,9.50
2018-09-01T20:38:25.674Z,9.10
2018-09-01T20:40:53.619Z,12.63
2018-09-01T20:43:21.685Z,9.73
2018-09-01T20:45:49.557Z,11.07
2018-09-01T20:48:17.681Z,10.63
2018-09-01T20:50:45.573Z,8.77
2018-09-01T20:53:13.518Z,7.83
2018-09-01T20:55:41.433Z,11.87
2018-09-01T20:58:09.892Z,8.23
2018-09-01T21:00:37.721Z,9.13
2018-09-01T21:03:05.659Z,9.33
2018-09-01T21:05:33.590Z,10.13
2018-09-01T21:08:01.484Z,12.43
2018-09-01T21:10:29.332Z,8.87
2018-09-01T21:12:57.194Z,11.30
2018-09-01T21:15:25.088Z,11.23
2018-09-01T21:17:52.933Z,12.87
2018-09-01T21:20:20.831Z,13.70
2018-09-01T21:22:48.768Z,11.77
2018-09-01T21:25:16.623Z,10.77
2018-09-01T21:27:44.484Z,11.67
2018-09-01T21:30:12.381Z,11.97
2018-09-01T21:32:40.326Z,10.00
2018-09-01T21:35:08.190Z,10.47
2018-09-01T21:37:36.121Z,12.73
2018-09-01T21:40:04.018Z,13.70
2018-09-01T21:42:31.921Z,12.23
2018-09-01T21:44:59.805Z,11.43
2018-09-01T21:47:28.682Z,13.77
2018-09-01T21:49:56.558Z,16.60
2018-09-01T21:52:24.538Z,12.00
2018-09-01T21:54:52.533Z,13.23
2018-09-01T21:57:20.442Z,11.00
2018-09-01T21:59:48.420Z,14.57
2018-09-01T22:02:21.720Z,14.57
2018-09-01T22:04:55.143Z,18.30
2018-09-01T22:07:23.106Z,24.70
2018-09-01T22:09:52.246Z,14.10
2018-09-01T22:12:20.648Z,15.73
2018-09-01T22:14:50.198Z,17.50
2018-09-01T22:17:19.522Z,18.27
2018-09-01T22:19:47.412Z,17.10
2018-09-01T22:22:15.358Z,14.23
2018-09-01T22:24:43.249Z,16.77
2018-09-01T22:27:11.258Z,21.77
2018-09-01T22:29:39.205Z,15.83
2018-09-01T22:32:07.036Z,20.07
2018-09-01T22:34:34.943Z,18.00
2018-09-01T22:37:02.921Z,20.77
2018-09-01T22:39:30.914Z,24.37
2018-09-01T22:41:58.821Z,18.20
2018-09-01T22:44:26.717Z,15.03
2018-09-01T22:46:55.442Z,25.00
2018-09-01T22:49:23.373Z,18.90
2018-09-01T22:51:51.308Z,16.80
2018-09-01T22:54:19.209Z,20.70
2018-09-01T22:56:47.227Z,20.50
2018-09-01T22:59:15.125Z,17.83
2018-09-01T23:01:43.017Z,21.27
2018-09-01T23:04:10.940Z,23.00
2018-09-01T23:06:38.848Z,18.83
2018-09-01T23:09:06.958Z,19.63
2018-09-01T23:11:34.914Z,20.00
2018-09-01T23:14:02.877Z,20.03
2018-09-01T23:16:30.849Z,20.97
2018-09-01T23:18:58.799Z,18.80
2018-09-01T23:21:26.741Z,24.23
2018-09-01T23:23:54.655Z,22.53
2018-09-01T23:26:23.513Z,23.90
2018-09-01T23:28:51.466Z,17.30
2018-09-01T23:31:19.512Z,16.50
2018-09-01T23:33:47.461Z,21.73
2018-09-01T23:36:15.358Z,18.93
2018-09-01T23:38:43.253Z,17.80
2018-09-01T23:41:11.109Z,16.30
2018-09-01T23:43:38.972Z,14.73
2018-09-01T23:46:06.947Z,24.83
2018-09-01T23:48:34.768Z,14.50
2018-09-01T23:51:02.726Z,14.57
2018-09-01T23:53:30.634Z,18.60
2018-09-01T23:55:58.538Z,9.27
2018-09-01T23:58:26.428Z,10.60
